Time;durP1;ratioP1;P1;durP2;ratioP2;P2;SDS_P1;SDS_P2;PMS_P1;PMS_P2;Temp;Humidity;BMP_temperature;BMP_pressure;BME280_temperature;BME280_humidity;BME280_pressure;Samples;Min_cycle;Max_cycle;Signal;HPM_P1;HPM_P2
2021/07/06 00:00:32;;;;;;;4.28;1.20;;;17.30;99.90;;;15.90;93.02;96879.16;5045730;28;20041;-65
2021/07/06 00:03:19;;;;;;;2.03;1.17;;;17.10;99.90;;;15.65;95.13;96880.94;5051059;28;20037;-65
2021/07/06 00:06:07;;;;;;;4.78;1.15;;;17.00;99.90;;;15.60;95.75;96880.47;5048870;28;20086;-65
2021/07/06 00:08:54;;;;;;;7.20;1.17;;;16.80;99.90;;;15.57;96.12;96867.59;5048864;28;20539;-65
2021/07/06 00:11:42;;;;;;;4.65;1.27;;;16.60;99.90;;;15.47;97.36;96871.84;5050923;28;20056;-65
2021/07/06 00:14:29;;;;;;;2.17;1.00;;;16.50;99.90;;;15.52;96.96;96867.09;5051425;28;20041;-65
2021/07/06 00:17:18;;;;;;;7.63;1.27;;;16.40;99.90;;;15.39;97.97;96874.19;5048506;28;20052;-65
2021/07/06 00:20:12;;;;;;;3.03;1.40;;;16.30;99.90;;;15.34;98.36;96879.75;5036904;28;20505;-65
2021/07/06 00:23:04;;;;;;;6.75;1.40;;;16.20;99.90;;;15.36;98.53;96870.00;5051953;28;20362;-65
2021/07/06 00:25:51;;;;;;;4.88;1.48;;;16.20;99.90;;;15.33;98.49;96867.63;5036035;28;20052;-65
2021/07/06 00:28:39;;;;;;;10.00;1.60;;;16.20;99.90;;;15.33;98.54;96851.94;5043982;28;20064;-65
2021/07/06 00:31:26;;;;;;;3.67;1.02;;;16.20;99.90;;;15.54;96.71;96839.06;5049325;28;20048;-65
2021/07/06 00:34:14;;;;;;;5.05;1.35;;;16.20;99.90;;;15.41;97.27;96838.31;5050579;28;20040;-65
2021/07/06 00:37:02;;;;;;;4.53;1.45;;;16.20;99.90;;;15.31;98.06;96834.72;5047038;28;20108;-65
2021/07/06 00:39:49;;;;;;;8.95;1.95;;;16.30;99.90;;;15.11;98.73;96829.16;5044807;28;20064;-65
2021/07/06 00:42:48;;;;;;;5.70;1.83;;;16.20;99.90;;;15.02;100.00;96833.25;5049573;28;20055;-65
2021/07/06 00:45:35;;;;;;;6.85;1.30;;;16.10;99.90;;;14.95;100.00;96829.41;5051186;28;20041;-65
2021/07/06 00:48:25;;;;;;;3.58;1.45;;;16.00;99.90;;;14.92;100.00;96834.06;5049974;28;20612;-65
2021/07/06 00:51:12;;;;;;;3.95;1.38;;;16.00;99.90;;;14.89;100.00;96829.84;5050969;28;20072;-65
2021/07/06 00:53:59;;;;;;;3.38;1.48;;;15.90;99.90;;;14.87;100.00;96820.47;5031018;28;20389;-65
2021/07/06 00:56:47;;;;;;;2.47;1.20;;;15.90;99.90;;;14.95;100.00;96818.97;5046543;28;20559;-65
2021/07/06 00:59:34;;;;;;;3.88;1.55;;;15.90;99.90;;;14.81;100.00;96819.97;5051258;28;20044;-65
2021/07/06 01:02:22;;;;;;;5.10;1.60;;;15.80;99.90;;;14.86;100.00;96817.03;5047605;28;20413;-65
2021/07/06 01:05:15;;;;;;;6.72;1.25;;;15.70;99.90;;;14.79;100.00;96813.19;5061669;28;20029;-65
2021/07/06 01:08:03;;;;;;;4.22;1.65;;;15.70;99.90;;;14.68;100.00;96821.78;5049231;28;20128;-65
2021/07/06 01:10:52;;;;;;;4.45;1.80;;;15.70;99.90;;;14.57;100.00;96825.19;5050310;28;20049;-65
2021/07/06 01:13:40;;;;;;;4.10;1.30;;;15.70;99.90;;;14.66;100.00;96815.00;5032533;28;20048;-65
2021/07/06 01:16:27;;;;;;;3.47;1.20;;;15.70;99.90;;;14.64;100.00;96808.13;5046271;28;20040;-65
2021/07/06 01:19:15;;;;;;;5.85;1.58;;;15.60;99.90;;;14.58;100.00;96823.38;5048707;28;20045;-65
2021/07/06 01:22:05;;;;;;;5.97;1.48;;;15.60;99.90;;;14.59;100.00;96817.22;5049570;28;20064;-65
2021/07/06 01:24:52;;;;;;;6.85;1.60;;;15.60;99.90;;;14.61;100.00;96815.31;5028650;28;20143;-65
2021/07/06 01:27:40;;;;;;;5.55;1.92;;;15.60;99.90;;;14.66;100.00;96815.81;5042792;28;20124;-65
2021/07/06 01:30:28;;;;;;;8.82;1.90;;;15.60;99.90;;;14.62;100.00;96812.63;5048637;28;20055;-65
2021/07/06 01:33:26;;;;;;;3.95;1.40;;;15.60;99.90;;;14.67;100.00;96801.84;5051671;28;20355;-65
2021/07/06 01:36:16;;;;;;;5.55;1.38;;;15.50;99.90;;;14.59;100.00;96797.16;5048819;28;20056;-65
2021/07/06 01:39:03;;;;;;;5.03;1.92;;;15.60;99.90;;;14.58;100.00;96802.50;5050679;28;20504;-65
2021/07/06 01:41:50;;;;;;;6.85;1.95;;;15.50;99.90;;;14.47;100.00;96797.16;5050546;28;20156;-65
2021/07/06 01:44:38;;;;;;;2.78;1.20;;;15.50;99.90;;;14.58;100.00;96792.06;5042357;28;20036;-65
2021/07/06 01:47:25;;;;;;;3.22;1.40;;;15.50;99.90;;;14.57;100.00;96786.00;5047641;28;20122;-65
2021/07/06 01:50:34;;;;;;;4.97;1.80;;;15.50;99.90;;;14.44;100.00;96801.66;5043696;28;20045;-65
2021/07/06 01:53:22;;;;;;;6.13;1.40;;;15.50;99.90;;;14.68;100.00;96794.84;5027438;28;20415;-65
2021/07/06 01:56:10;;;;;;;3.35;1.13;;;15.50;99.90;;;14.73;100.00;96784.88;5048315;28;20255;-65
2021/07/06 01:58:57;;;;;;;2.75;1.08;;;15.60;99.90;;;14.97;98.27;96770.03;5032270;28;20096;-65
2021/07/06 02:01:45;;;;;;;9.40;1.60;;;15.70;99.90;;;14.78;99.52;96774.94;5047860;28;20067;-65
2021/07/06 02:04:32;;;;;;;3.60;1.60;;;15.70;99.90;;;14.77;100.00;96766.25;5047252;28;20063;-65
2021/07/06 02:07:19;;;;;;;3.20;1.08;;;15.70;99.90;;;14.96;98.46;96764.91;5047992;28;20052;-65
2021/07/06 02:10:08;;;;;;;3.63;1.17;;;15.80;99.90;;;14.99;98.44;96769.94;5048768;28;20433;-64
2021/07/06 02:12:58;;;;;;;5.03;1.23;;;15.80;99.90;;;15.03;98.11;96767.00;5048642;28;20048;-65
2021/07/06 02:15:48;;;;;;;3.50;1.02;;;15.80;99.90;;;15.14;97.38;96771.41;5041939;28;20037;-65
2021/07/06 02:18:37;;;;;;;1.90;1.13;;;15.90;99.90;;;15.18;96.94;96761.56;5043518;28;20540;-65
2021/07/06 02:21:24;;;;;;;7.65;1.35;;;16.00;99.90;;;15.14;97.38;96766.19;5053357;28;20067;-65
2021/07/06 02:24:12;;;;;;;2.88;1.30;;;16.00;99.90;;;15.25;96.50;96763.59;5047397;28;20417;-65
2021/07/06 02:26:59;;;;;;;2.83;1.10;;;16.00;99.90;;;15.18;97.27;96762.41;5044427;28;20511;-65
2021/07/06 02:29:46;;;;;;;4.60;1.13;;;16.00;99.90;;;15.23;96.52;96756.81;5047154;28;20037;-65
2021/07/06 02:32:34;;;;;;;1.83;0.82;;;16.10;99.90;;;15.30;95.64;96752.81;5035782;28;20477;-63
2021/07/06 02:35:26;;;;;;;5.15;1.38;;;16.10;99.90;;;15.23;95.84;96746.38;5050918;28;20127;-64
2021/07/06 02:38:14;;;;;;;4.28;1.13;;;16.10;99.90;;;15.32;95.70;96753.53;5044374;28;20124;-65
2021/07/06 02:41:02;;;;;;;3.15;1.00;;;16.10;99.90;;;15.39;95.04;96754.72;5042724;28;20524;-65
2021/07/06 02:43:49;;;;;;;2.53;1.10;;;16.10;99.90;;;15.31;95.40;96746.63;5041332;28;20478;-65
2021/07/06 02:46:36;;;;;;;3.00;1.17;;;16.10;99.90;;;15.36;95.54;96741.06;5049276;28;20081;-65
2021/07/06 02:49:24;;;;;;;3.35;1.00;;;16.10;99.90;;;15.39;96.05;96746.88;5049350;28;20048;-65
2021/07/06 02:52:13;;;;;;;4.45;1.42;;;16.10;99.90;;;15.59;94.74;96747.16;5043090;28;20056;-65
2021/07/06 02:55:01;;;;;;;5.47;1.20;;;16.30;99.90;;;15.70;93.91;96749.81;5049070;28;20083;-65
2021/07/06 02:57:52;;;;;;;4.85;1.10;;;16.40;99.90;;;15.74;93.71;96747.81;5045789;28;20114;-65
2021/07/06 03:00:40;;;;;;;3.60;1.20;;;16.50;99.90;;;15.75;93.58;96752.09;5049173;28;20079;-65
2021/07/06 03:03:27;;;;;;;2.53;1.08;;;16.50;99.90;;;15.76;93.61;96741.53;5031605;28;20126;-65
2021/07/06 03:06:14;;;;;;;9.48;1.42;;;16.60;99.90;;;15.73;93.66;96740.91;5044234;28;20440;-65
2021/07/06 03:09:01;;;;;;;2.22;1.05;;;16.60;99.90;;;15.82;93.31;96742.81;5049536;28;20086;-65
2021/07/06 03:11:48;;;;;;;3.58;1.15;;;16.60;99.90;;;15.77;93.35;96742.34;5048209;28;20033;-65
2021/07/06 03:14:36;;;;;;;2.50;1.25;;;16.60;99.90;;;15.77;93.28;96737.13;5046626;28;20044;-65
2021/07/06 03:17:23;;;;;;;3.30;1.30;;;16.60;99.90;;;15.71;93.50;96719.25;5051115;28;20041;-65
2021/07/06 03:20:14;;;;;;;3.65;1.10;;;16.60;99.90;;;15.78;93.38;96721.31;5049069;28;20057;-65
2021/07/06 03:23:02;;;;;;;3.75;1.20;;;16.60;99.90;;;15.80;93.25;96722.00;5052606;28;20037;-65
2021/07/06 03:25:50;;;;;;;3.40;1.35;;;16.60;99.90;;;15.83;93.20;96716.53;5049800;28;20044;-65
2021/07/06 03:28:38;;;;;;;3.45;1.00;;;16.70;99.90;;;15.85;92.75;96711.16;5051680;28;20037;-65
2021/07/06 03:31:25;;;;;;;2.05;1.02;;;16.70;99.90;;;15.84;92.68;96714.75;5031867;28;20562;-65
2021/07/06 03:34:13;;;;;;;4.00;0.98;;;16.70;99.90;;;15.87;92.66;96717.13;5052726;28;20051;-65
2021/07/06 03:37:02;;;;;;;2.72;1.20;;;16.70;99.90;;;15.86;92.74;96718.09;5050805;28;20056;-65
2021/07/06 03:39:49;;;;;;;3.00;1.00;;;16.70;99.90;;;15.93;92.57;96710.59;5050150;28;20033;-65
2021/07/06 03:42:37;;;;;;;2.30;0.88;;;16.80;99.90;;;15.99;92.08;96707.50;5043933;28;20141;-64
2021/07/06 03:45:25;;;;;;;3.25;1.23;;;16.80;99.90;;;16.03;91.63;96712.38;5049281;28;20048;-65
2021/07/06 03:48:12;;;;;;;3.92;1.20;;;16.90;99.90;;;15.99;91.60;96713.56;5051954;28;20493;-65
2021/07/06 03:51:00;;;;;;;2.17;1.08;;;16.90;99.90;;;16.01;91.39;96705.56;5050321;28;20142;-65
2021/07/06 03:53:47;;;;;;;2.75;1.10;;;16.80;99.90;;;16.00;91.31;96702.13;5033181;28;20232;-65
2021/07/06 03:56:34;;;;;;;2.25;0.90;;;16.80;99.90;;;16.10;91.04;96697.00;5047686;28;20064;-65
2021/07/06 03:59:21;;;;;;;2.17;0.77;;;16.90;99.90;;;16.13;90.93;96693.31;5046757;28;20045;-65
2021/07/06 04:02:09;;;;;;;1.98;0.80;;;17.00;99.90;;;16.14;90.72;96694.97;5050085;28;20037;-65
2021/07/06 04:04:56;;;;;;;4.30;1.10;;;17.00;99.90;;;16.13;90.65;96694.16;5044594;28;20602;-65
2021/07/06 04:07:45;;;;;;;3.88;1.38;;;17.00;99.90;;;16.10;91.05;96690.00;5050611;28;20184;-65
2021/07/06 04:10:32;;;;;;;2.35;1.13;;;17.10;99.90;;;16.23;90.21;96689.84;5051025;28;20041;-65
2021/07/06 04:13:20;;;;;;;3.92;0.90;;;17.10;99.90;;;16.29;89.77;96689.34;5049043;28;20079;-65
2021/07/06 04:16:07;;;;;;;2.90;0.93;;;17.10;99.90;;;16.44;89.34;96687.28;5049079;28;20352;-65
2021/07/06 04:18:54;;;;;;;3.13;1.00;;;17.20;99.90;;;16.54;88.53;96684.78;5049237;28;20116;-65
2021/07/06 04:21:42;;;;;;;1.35;0.80;;;17.30;99.90;;;16.72;87.58;96690.31;5057529;28;20056;-65
2021/07/06 04:24:30;;;;;;;3.03;1.10;;;17.50;99.90;;;16.68;88.09;96704.59;5031434;28;20048;-65
2021/07/06 04:27:17;;;;;;;1.52;0.70;;;17.70;99.90;;;16.88;86.81;96701.22;5049043;28;20040;-65
2021/07/06 04:30:07;;;;;;;2.50;0.80;;;17.80;99.90;;;17.03;86.18;96698.28;5051292;28;20131;-65
2021/07/06 04:32:54;;;;;;;3.20;0.80;;;18.00;99.90;;;17.22;84.51;96687.09;5046635;28;20048;-65
2021/07/06 04:35:42;;;;;;;1.98;0.90;;;18.20;99.90;;;17.43;83.71;96703.66;5050588;28;20144;-65
2021/07/06 04:38:29;;;;;;;2.13;0.70;;;18.40;99.90;;;17.46;83.20;96702.56;5051198;28;20092;-65
2021/07/06 04:41:16;;;;;;;2.80;0.70;;;18.40;99.90;;;17.50;83.07;96709.22;5049957;28;20508;-65
2021/07/06 04:44:04;;;;;;;2.63;0.80;;;18.50;99.90;;;17.54;83.16;96727.22;5046316;28;20084;-65
2021/07/06 04:46:51;;;;;;;2.90;0.70;;;18.60;99.90;;;17.59;83.67;96734.69;5048951;28;20037;-65
2021/07/06 04:49:38;;;;;;;2.08;0.70;;;18.70;99.90;;;17.71;83.18;96733.66;5047039;28;20107;-65
2021/07/06 04:52:26;;;;;;;2.20;0.88;;;18.60;99.90;;;17.63;83.05;96741.34;5050469;28;20060;-65
2021/07/06 04:55:18;;;;;;;1.73;0.77;;;18.70;99.90;;;17.67;83.73;96755.03;5040478;28;20033;-65
2021/07/06 04:58:05;;;;;;;2.17;0.90;;;18.70;99.90;;;17.64;84.19;96747.44;5030509;28;20048;-65
2021/07/06 05:00:53;;;;;;;6.38;0.70;;;18.70;99.90;;;17.77;83.21;96751.50;5046708;28;20156;-65
2021/07/06 05:03:42;;;;;;;3.67;1.08;;;18.60;99.90;;;17.65;84.17;96746.44;5045904;28;20150;-65
2021/07/06 05:06:29;;;;;;;2.92;0.70;;;18.70;99.90;;;17.80;83.42;96741.72;5047141;28;20041;-65
2021/07/06 05:09:16;;;;;;;3.60;0.77;;;18.90;99.90;;;17.91;82.40;96749.53;5050398;28;20061;-65
2021/07/06 05:12:04;;;;;;;2.72;0.90;;;19.10;99.90;;;18.12;81.29;96745.06;5026877;28;20037;-65
2021/07/06 05:14:51;;;;;;;4.20;0.65;;;19.30;99.90;;;18.16;81.06;96748.25;5048756;28;20068;-65
2021/07/06 05:17:38;;;;;;;3.20;0.77;;;19.40;99.90;;;18.30;80.43;96745.25;5048602;28;20120;-65
2021/07/06 05:20:26;;;;;;;1.60;0.70;;;19.60;99.90;;;18.45;79.54;96745.72;5047831;28;20029;-65
2021/07/06 05:23:13;;;;;;;2.97;0.70;;;18.70;99.90;;;18.44;80.09;96766.88;5043571;28;20135;-65
2021/07/06 05:26:01;;;;;;;3.67;0.80;;;19.60;99.90;;;18.43;79.39;96770.44;5047887;28;20077;-65
2021/07/06 05:28:49;;;;;;;4.78;0.95;;;19.40;99.90;;;18.19;81.01;96776.88;5050722;28;20041;-65
2021/07/06 05:31:36;;;;;;;4.72;1.00;;;19.40;99.90;;;18.13;81.53;96817.63;5048450;28;20052;-65
2021/07/06 05:34:23;;;;;;;2.20;0.80;;;19.30;99.90;;;17.96;82.86;96826.09;5047966;28;20040;-65
2021/07/06 05:37:11;;;;;;;8.70;1.80;;;19.00;99.90;;;16.94;93.69;96815.22;5028666;28;20091;-65
2021/07/06 05:39:58;;;;;;;4.40;0.90;;;18.30;99.90;;;16.87;94.97;96788.66;5048925;28;20520;-65
2021/07/06 05:42:45;;;;;;;5.72;1.00;;;17.70;99.90;;;16.77;96.32;96782.47;5043378;28;20056;-65
2021/07/06 05:45:34;;;;;;;2.38;1.05;;;17.50;99.90;;;16.72;98.33;96764.50;5036504;28;20131;-65
2021/07/06 05:48:22;;;;;;;3.10;1.17;;;17.50;99.90;;;16.75;99.25;96758.19;5033372;28;20044;-65
2021/07/06 05:51:10;;;;;;;4.75;1.50;;;17.40;99.90;;;16.84;99.92;96725.19;5042498;28;20409;-65
2021/07/06 05:53:57;;;;;;;2.30;0.95;;;17.50;99.90;;;16.99;100.00;96733.56;5042190;28;20045;-65
2021/07/06 05:56:44;;;;;;;3.22;1.13;;;17.70;99.90;;;17.17;99.33;96745.16;5047265;28;20532;-65
2021/07/06 05:59:31;;;;;;;2.80;1.00;;;17.90;99.90;;;17.52;98.71;96771.13;5046932;28;20068;-65
2021/07/06 06:02:19;;;;;;;2.67;1.05;;;18.10;99.90;;;17.64;97.90;96755.31;5028694;28;20037;-65
2021/07/06 06:05:07;;;;;;;4.75;1.23;;;18.30;99.90;;;17.73;97.83;96765.84;5049141;28;20041;-65
2021/07/06 06:07:55;;;;;;;3.63;1.00;;;18.40;99.90;;;17.81;97.14;96759.97;5048223;28;20601;-65
2021/07/06 06:10:42;;;;;;;3.83;1.10;;;18.50;99.90;;;17.69;96.38;96755.72;5037733;28;20041;-66
2021/07/06 06:13:30;;;;;;;4.80;1.30;;;18.60;99.90;;;17.56;95.57;96764.66;5045309;28;20040;-66
2021/07/06 06:16:17;;;;;;;2.72;0.95;;;18.60;99.90;;;17.26;97.14;96781.13;5042047;28;20155;-65
2021/07/06 06:19:04;;;;;;;5.80;1.10;;;18.40;99.90;;;17.08;99.19;96783.50;5046367;28;20412;-65
2021/07/06 06:21:52;;;;;;;4.50;1.30;;;18.30;99.90;;;16.96;100.00;96789.72;5055360;28;20094;-65
2021/07/06 06:24:29;;;;;;;9.30;1.73;;;18.20;99.90;;;17.12;100.00;96787.50;5047593;28;20064;-65
2021/07/06 06:26:56;;;;;;;4.07;1.25;;;18.10;99.90;;;17.18;99.93;96783.56;5052344;28;20449;-65
2021/07/06 06:29:23;;;;;;;2.17;1.13;;;17.90;99.90;;;17.11;99.66;96787.66;5049326;28;20044;-65
2021/07/06 06:31:50;;;;;;;2.22;1.10;;;18.00;99.90;;;17.24;98.71;96792.72;5045768;28;20475;-65
2021/07/06 06:34:17;;;;;;;3.13;0.90;;;18.00;99.90;;;17.25;99.34;96791.75;5049510;28;20045;-65
2021/07/06 06:36:44;;;;;;;2.22;0.98;;;18.00;99.90;;;17.29;99.10;96799.25;5048837;28;20394;-65
2021/07/06 06:39:14;;;;;;;8.95;1.35;;;18.00;99.90;;;17.24;99.85;96790.09;5049551;28;20044;-65
2021/07/06 06:41:41;;;;;;;5.45;1.20;;;18.20;99.90;;;17.42;99.13;96782.50;5030402;28;20385;-65
2021/07/06 06:44:08;;;;;;;3.55;1.50;;;18.20;99.90;;;17.40;98.87;96805.41;5049593;28;20045;-65
2021/07/06 06:46:56;;;;;;;4.03;1.60;;;18.30;99.90;;;17.36;100.00;96817.94;5047478;28;20084;-65
2021/07/06 06:49:43;;;;;;;5.05;1.30;;;18.50;99.90;;;17.45;99.62;96825.06;5044327;28;20442;-65
2021/07/06 06:52:32;;;;;;;2.72;1.40;;;18.70;99.90;;;17.44;99.94;96831.25;5046952;28;20041;-66
2021/07/06 06:55:21;;;;;;;3.38;1.20;;;18.80;99.90;;;17.55;99.32;96840.88;5048493;28;20041;-65
2021/07/06 06:58:08;;;;;;;2.47;1.15;;;18.80;99.90;;;17.62;98.46;96825.44;5047111;28;20045;-65
2021/07/06 07:00:56;;;;;;;5.00;1.40;;;18.70;99.90;;;17.43;99.06;96836.63;5043892;28;20033;-65
2021/07/06 07:03:43;;;;;;;9.18;1.70;;;18.60;99.90;;;17.38;100.00;96863.25;5049013;28;20045;-65
2021/07/06 07:06:33;;;;;;;5.72;1.95;;;18.60;99.90;;;17.39;100.00;96861.44;5042944;28;20492;-65
2021/07/06 07:09:20;;;;;;;3.05;1.48;;;18.50;99.90;;;17.45;100.00;96881.94;5033790;28;20122;-65
2021/07/06 07:12:08;;;;;;;3.95;2.15;;;18.40;99.90;;;17.43;100.00;96892.56;5039226;28;20400;-65
2021/07/06 07:14:55;;;;;;;4.35;1.70;;;18.30;99.90;;;17.29;100.00;96914.66;5047411;28;20134;-65
2021/07/06 07:17:28;;;;;;;;;;;18.40;99.90;;;17.23;100.00;96935.31;5044279;28;20045;-65
2021/07/06 07:19:55;;;;;;;5.00;2.00;;;18.40;99.90;;;17.17;100.00;96951.50;5026131;28;19924;-65
2021/07/06 07:22:21;;;;;;;9.48;2.53;;;18.30;99.90;;;16.98;100.00;96957.38;5047122;28;20044;-65
2021/07/06 07:25:08;;;;;;;12.00;2.28;;;18.20;99.90;;;16.82;100.00;96973.47;5044288;28;20060;-65
2021/07/06 07:27:56;;;;;;;38.78;2.80;;;17.90;99.90;;;16.72;100.00;96968.09;5047077;28;20543;-65
2021/07/06 07:30:43;;;;;;;5.32;2.28;;;17.70;99.90;;;16.61;100.00;96992.47;5047176;28;20079;-65
2021/07/06 07:33:30;;;;;;;13.15;2.40;;;17.70;99.90;;;16.76;100.00;96973.91;5047694;28;20056;-65
2021/07/06 07:36:17;;;;;;;2.22;1.40;;;17.60;99.90;;;16.74;100.00;96942.59;5047213;28;20127;-65
2021/07/06 07:39:05;;;;;;;5.45;1.70;;;17.50;99.90;;;16.73;100.00;96928.63;5048523;28;20168;-66
2021/07/06 07:41:52;;;;;;;1.73;1.00;;;17.50;99.90;;;16.82;100.00;96919.25;5019897;28;20069;-65
2021/07/06 07:44:39;;;;;;;3.95;1.35;;;17.50;99.90;;;16.81;100.00;96914.97;5051165;28;20481;-65
2021/07/06 07:47:19;;;;;;;3.95;1.10;;;17.60;99.90;;;16.88;100.00;96899.59;5051704;28;20232;-65
2021/07/06 07:49:48;;;;;;;1.90;1.02;;;17.60;99.90;;;16.95;100.00;96894.72;5052225;28;20385;-65
2021/07/06 07:52:15;;;;;;;3.00;1.17;;;17.60;99.90;;;16.89;100.00;96898.63;5049434;28;20048;-65
2021/07/06 07:54:43;;;;;;;1.77;0.85;;;17.70;99.90;;;17.01;100.00;96899.44;5022904;28;20149;-65
2021/07/06 07:57:11;;;;;;;2.55;0.90;;;17.70;99.90;;;17.02;100.00;96899.34;5049907;28;20040;-65
2021/07/06 07:59:38;;;;;;;1.70;0.80;;;17.70;99.90;;;17.00;100.00;96910.91;5050257;28;20055;-65
2021/07/06 08:02:06;;;;;;;2.80;1.00;;;17.70;99.90;;;16.93;100.00;96908.75;5049442;28;20051;-65
2021/07/06 08:04:33;;;;;;;3.53;1.00;;;17.60;99.90;;;16.85;100.00;96912.94;5025312;28;20041;-65
2021/07/06 08:07:01;;;;;;;1.88;0.80;;;17.50;99.90;;;16.91;100.00;96925.56;5024795;28;20056;-65
2021/07/06 08:09:28;;;;;;;5.20;1.20;;;17.50;99.90;;;16.59;100.00;96943.78;5033424;28;20174;-65
2021/07/06 08:11:55;;;;;;;3.80;1.00;;;17.50;99.90;;;16.78;100.00;96956.28;5026060;28;20505;-65
2021/07/06 08:14:22;;;;;;;6.22;1.60;;;17.50;99.90;;;16.68;100.00;96971.88;5029222;28;20045;-65
2021/07/06 08:16:51;;;;;;;2.78;1.27;;;17.50;99.90;;;16.63;100.00;96964.38;5051980;28;20427;-65
2021/07/06 08:19:18;;;;;;;3.05;1.02;;;17.50;99.90;;;16.56;100.00;96972.81;5033483;28;20048;-65
2021/07/06 08:21:45;;;;;;;5.15;1.00;;;17.50;99.90;;;16.66;100.00;96972.00;5051028;28;20057;-65
2021/07/06 08:24:12;;;;;;;2.72;0.80;;;17.40;99.90;;;16.59;100.00;96969.97;5033484;28;20053;-65
2021/07/06 08:26:39;;;;;;;1.52;0.70;;;17.40;99.90;;;16.56;100.00;96975.44;5051538;28;20558;-65
2021/07/06 08:29:06;;;;;;;2.10;0.70;;;17.40;99.90;;;16.49;100.00;96977.72;5050724;28;20389;-65
2021/07/06 08:31:33;;;;;;;1.70;0.70;;;17.40;99.90;;;16.47;100.00;96977.81;5031211;28;20053;-65
2021/07/06 08:34:01;;;;;;;7.50;1.00;;;17.30;99.90;;;16.47;100.00;96984.84;5051215;28;20585;-65
2021/07/06 08:36:28;;;;;;;2.50;0.80;;;17.20;99.90;;;16.61;100.00;96975.94;5051356;28;20056;-65
2021/07/06 08:38:55;;;;;;;2.65;0.65;;;17.30;99.90;;;16.66;100.00;96960.69;5014416;28;20049;-65
2021/07/06 08:41:22;;;;;;;1.58;0.50;;;17.40;99.90;;;16.68;100.00;96961.41;5049672;28;20083;-65
2021/07/06 08:43:52;;;;;;;2.22;0.63;;;17.40;99.90;;;16.57;100.00;96961.41;5042446;28;20169;-65
2021/07/06 08:46:21;;;;;;;1.80;0.70;;;17.50;99.90;;;16.69;100.00;96953.44;5050927;28;20037;-65
2021/07/06 08:48:50;;;;;;;2.97;0.70;;;17.60;99.90;;;16.80;100.00;96959.66;5029299;28;20042;-65
2021/07/06 08:51:20;;;;;;;2.10;0.77;;;17.70;99.90;;;16.97;100.00;96943.44;5046945;28;20041;-65
2021/07/06 08:53:49;;;;;;;3.08;0.60;;;17.70;99.90;;;17.16;100.00;96952.47;5032543;28;20044;-65
2021/07/06 08:56:16;;;;;;;1.10;0.70;;;17.90;99.90;;;17.11;100.00;96951.06;5049000;28;20033;-65
2021/07/06 08:58:44;;;;;;;1.27;0.50;;;17.90;99.90;;;16.99;100.00;96959.91;5049080;28;20345;-65
2021/07/06 09:01:13;;;;;;;2.55;0.70;;;17.90;99.90;;;17.18;100.00;96951.41;5047790;28;20033;-65
2021/07/06 09:04:05;;;;;;;2.60;0.70;;;18.00;99.90;;;17.08;100.00;96945.19;5033027;28;20377;-65
2021/07/06 09:06:56;;;;;;;4.25;0.60;;;18.00;99.90;;;17.09;100.00;96939.84;5050385;28;20509;-65
2021/07/06 09:09:30;;;;;;;1.65;0.60;;;18.10;99.90;;;17.03;100.00;96940.31;5047548;28;20045;-65
2021/07/06 09:12:00;;;;;;;1.38;0.40;;;18.00;99.90;;;17.02;100.00;96932.59;5049538;28;20495;-65
2021/07/06 09:14:29;;;;;;;1.00;0.40;;;18.00;99.90;;;16.92;99.65;96940.31;5021115;28;20107;-65
2021/07/06 09:17:13;;;;;;;1.30;0.40;;;17.90;99.90;;;16.81;99.72;96951.69;5047627;28;20069;-65
2021/07/06 09:19:52;;;;;;;1.48;0.57;;;17.90;99.90;;;16.89;100.00;96953.69;5041531;28;20783;-65
2021/07/06 09:22:34;;;;;;;2.42;0.47;;;17.80;99.90;;;16.71;99.97;96958.53;5042895;28;20485;-65
2021/07/06 09:25:08;;;;;;;1.35;0.60;;;17.70;99.90;;;16.72;100.00;96954.97;5062147;28;20071;-65
2021/07/06 09:27:41;;;;;;;1.15;0.50;;;17.70;99.90;;;16.64;100.00;96955.56;5050591;28;20095;-65
2021/07/06 09:30:21;;;;;;;2.25;0.50;;;17.60;99.90;;;16.75;100.00;96946.88;5029849;28;20115;-65
2021/07/06 09:32:54;;;;;;;1.52;0.60;;;17.70;99.90;;;16.63;100.00;96945.22;5010323;28;20114;-65
2021/07/06 09:35:29;;;;;;;1.88;0.52;;;17.70;99.90;;;16.53;100.00;96955.53;5049278;28;20041;-65
2021/07/06 09:38:04;;;;;;;1.38;0.57;;;17.60;99.90;;;16.66;100.00;96964.13;5050301;28;20055;-65
2021/07/06 09:40:39;;;;;;;1.33;0.70;;;17.50;99.90;;;16.50;100.00;96995.91;5049724;28;20381;-65
2021/07/06 09:43:26;;;;;;;1.63;0.60;;;17.50;99.90;;;16.56;100.00;96978.91;5049696;28;20048;-64
2021/07/06 09:45:56;;;;;;;1.38;0.60;;;17.40;99.90;;;16.64;100.00;96973.06;5043344;28;20543;-63
2021/07/06 09:48:23;;;;;;;0.90;0.50;;;17.40;99.90;;;16.51;100.00;96994.97;5048572;28;20501;-63
2021/07/06 09:50:51;;;;;;;1.85;0.52;;;17.50;99.90;;;16.51;100.00;96979.25;5049395;28;20546;-63
2021/07/06 09:53:30;;;;;;;1.95;0.77;;;17.50;99.90;;;16.58;100.00;96987.50;5030744;28;20095;-63
2021/07/06 09:55:58;;;;;;;1.15;0.50;;;17.50;99.90;;;16.61;100.00;96979.38;5013840;28;20037;-64
2021/07/06 09:58:25;;;;;;;1.30;0.50;;;17.40;99.90;;;16.66;100.00;96987.72;5031932;28;20489;-64
2021/07/06 10:00:52;;;;;;;2.55;0.60;;;17.50;99.90;;;16.83;100.00;96996.94;5049201;28;20043;-64
2021/07/06 10:03:20;;;;;;;1.33;0.40;;;17.70;99.90;;;16.70;100.00;96983.91;5028534;28;20050;-63
2021/07/06 10:05:50;;;;;;;2.70;0.60;;;17.80;99.90;;;16.87;100.00;96994.91;5040313;28;20047;-64
2021/07/06 10:08:18;;;;;;;1.17;0.50;;;17.70;99.90;;;16.99;100.00;96993.97;5047522;28;20041;-64
2021/07/06 10:10:45;;;;;;;1.23;0.70;;;17.80;99.90;;;17.07;100.00;96985.50;5033074;28;20056;-64
2021/07/06 10:13:12;;;;;;;0.90;0.50;;;17.90;99.90;;;17.10;100.00;96987.88;5052347;28;20051;-64
2021/07/06 10:15:40;;;;;;;4.70;0.52;;;18.00;99.90;;;17.08;100.00;96995.03;5048072;28;20045;-63
2021/07/06 10:18:08;;;;;;;1.55;0.60;;;18.00;99.90;;;17.09;100.00;96981.81;5048346;28;20501;-63
2021/07/06 10:20:36;;;;;;;0.93;0.45;;;18.00;99.90;;;17.26;98.90;96974.38;5053375;28;20049;-64
2021/07/06 10:23:04;;;;;;;2.90;0.70;;;18.20;99.90;;;17.59;99.52;96964.78;5045629;28;20033;-63
2021/07/06 10:25:35;;;;;;;1.23;0.60;;;18.50;99.90;;;18.09;95.23;96980.88;5049193;28;20056;-64
2021/07/06 10:28:07;;;;;;;1.52;0.40;;;18.90;99.90;;;18.39;91.21;96987.97;5016097;28;20044;-64
2021/07/06 10:30:46;;;;;;;3.28;0.70;;;19.40;99.90;;;18.45;91.55;96990.09;5032162;28;20102;-63
2021/07/06 10:33:33;;;;;;;2.30;0.60;;;19.90;99.90;;;18.50;91.93;96997.59;5064887;28;20037;-63
2021/07/06 10:36:03;;;;;;;2.55;0.60;;;20.00;99.90;;;18.08;91.10;97010.69;5048911;28;20068;-64
2021/07/06 10:38:33;;;;;;;1.15;0.50;;;20.10;99.90;;;18.29;90.46;97011.56;5048880;28;20041;-63
2021/07/06 10:41:03;;;;;;;0.85;0.50;;;20.10;99.90;;;18.51;90.02;97038.66;5047917;28;20083;-64
2021/07/06 10:43:42;;;;;;;1.33;0.50;;;20.20;99.90;;;18.45;90.75;97011.13;5030840;28;20045;-64
2021/07/06 10:46:21;;;;;;;1.52;0.50;;;20.20;99.90;;;18.61;89.25;96987.00;5047776;28;20366;-64
2021/07/06 10:48:48;;;;;;;1.88;0.40;;;20.30;99.90;;;19.15;85.57;96979.78;5050276;28;20093;-63
2021/07/06 10:51:39;;;;;;;1.45;0.43;;;20.40;99.90;;;18.50;89.71;96989.72;5049443;28;20060;-63
2021/07/06 10:54:19;;;;;;;1.70;0.52;;;20.20;99.90;;;18.43;91.25;96988.53;5048569;28;20103;-63
2021/07/06 10:57:14;;;;;;;0.73;0.28;;;19.90;99.90;;;18.47;89.54;96979.44;5048936;28;20133;-63
2021/07/06 10:59:41;;;;;;;0.70;0.40;;;19.70;99.90;;;18.02;90.95;96988.41;5062587;28;20132;-63
2021/07/06 11:02:26;;;;;;;1.58;0.60;;;19.50;99.90;;;17.91;92.09;97007.66;5062660;28;20052;-63
2021/07/06 11:04:56;;;;;;;1.17;0.55;;;19.20;99.90;;;17.98;93.16;97021.13;5043298;28;20040;-63
2021/07/06 11:07:29;;;;;;;1.52;0.55;;;19.10;99.90;;;18.11;92.34;97006.03;5046254;28;20404;-63
2021/07/06 11:09:56;;;;;;;0.93;0.40;;;19.10;99.90;;;17.96;90.87;96999.41;5047164;28;20448;-64
2021/07/06 11:12:30;;;;;;;2.15;0.50;;;19.10;99.90;;;17.91;91.11;96998.97;5044927;28;20048;-63
2021/07/06 11:15:36;;;;;;;1.73;0.50;;;19.00;99.90;;;18.04;93.00;96973.38;5057815;28;20061;-63
2021/07/06 11:18:08;;;;;;;3.08;0.68;;;19.00;99.90;;;18.07;89.17;96973.09;5012989;28;20111;-63